Time;durP1;ratioP1;P1;durP2;ratioP2;P2;SDS_P1;SDS_P2;PMS_P1;PMS_P2;Temp;Humidity;BMP_temperature;BMP_pressure;BME280_temperature;BME280_humidity;BME280_pressure;Samples;Min_cycle;Max_cycle;Signal;HPM_P1;HPM_P2
2022/08/03 00:01:06;;;;;;;;;7.00;6.00;;;;;22.64;71.16;100066.31;5035793;28;45311;-76
2022/08/03 00:03:32;;;;;;;;;7.00;7.00;;;;;22.69;70.64;100071.50;5034443;28;45500;-76
2022/08/03 00:05:58;;;;;;;;;8.67;7.33;;;;;22.69;70.95;100073.31;5022032;28;45638;-76
2022/08/03 00:08:23;;;;;;;;;8.67;7.00;;;;;22.65;70.15;100075.19;5025012;28;46300;-76
2022/08/03 00:10:49;;;;;;;;;8.00;8.00;;;;;22.71;69.95;100058.16;5016611;28;45422;-76
2022/08/03 00:13:14;;;;;;;;;6.00;6.00;;;;;22.71;68.95;100059.03;5017222;28;45387;-75
2022/08/03 00:15:40;;;;;;;;;8.00;6.00;;;;;22.71;68.85;100044.84;5036703;28;45346;-76
2022/08/03 00:18:06;;;;;;;;;7.00;7.00;;;;;22.70;69.06;100051.06;5035868;28;45334;-76
2022/08/03 00:20:32;;;;;;;;;8.67;7.67;;;;;22.65;69.20;100045.91;5023597;28;45670;-76
2022/08/03 00:22:58;;;;;;;;;7.67;7.00;;;;;22.57;70.11;100046.09;5030910;28;45463;-74
2022/08/03 00:25:23;;;;;;;;;8.67;7.33;;;;;22.52;69.89;100048.03;5035959;28;45769;-76
2022/08/03 00:27:49;;;;;;;;;10.00;9.00;;;;;22.43;70.37;100030.50;5027490;28;45535;-76
2022/08/03 00:30:14;;;;;;;;;9.00;8.67;;;;;22.33;70.39;100009.53;5031699;28;45356;-76
2022/08/03 00:32:40;;;;;;;;;9.33;8.00;;;;;22.42;70.66;100026.13;5034022;28;45516;-74
2022/08/03 00:35:06;;;;;;;;;7.67;7.00;;;;;22.47;70.29;100027.78;5067793;28;45609;-76
2022/08/03 00:37:31;;;;;;;;;7.00;7.00;;;;;22.47;69.98;100033.97;5027425;28;46200;-76
2022/08/03 00:39:57;;;;;;;;;9.00;8.00;;;;;22.43;69.89;100025.19;5038343;28;45547;-76
2022/08/03 00:42:22;;;;;;;;;8.00;8.00;;;;;22.42;69.84;100031.44;5027729;28;45318;-76
2022/08/03 00:44:48;;;;;;;;;7.00;7.00;;;;;22.44;69.71;100026.94;5035247;28;45358;-76
2022/08/03 00:47:13;;;;;;;;;8.00;7.00;;;;;22.29;69.86;100008.72;5020337;28;45447;-76
2022/08/03 00:49:39;;;;;;;;;10.67;9.33;;;;;22.37;69.92;100030.69;5034568;28;45505;-76
2022/08/03 00:52:08;;;;;;;;;7.00;6.33;;;;;22.27;69.83;100025.66;5028420;28;45258;-76
2022/08/03 00:54:38;;;;;;;;;7.33;7.33;;;;;22.23;69.92;100036.31;5034885;28;45445;-76
2022/08/03 00:57:04;;;;;;;;;10.33;9.00;;;;;22.04;69.57;99997.81;5035582;28;45525;-75
2022/08/03 00:59:30;;;;;;;;;9.00;8.33;;;;;22.09;70.45;100013.69;5019747;28;45439;-76
2022/08/03 01:01:56;;;;;;;;;9.67;7.00;;;;;22.15;70.62;100018.84;5031963;28;45367;-75
2022/08/03 01:04:21;;;;;;;;;8.33;8.00;;;;;22.11;69.97;100006.53;5024945;28;45495;-75
2022/08/03 01:07:02;;;;;;;;;8.33;7.67;;;;;22.19;70.87;100018.69;5023631;28;45442;-76
2022/08/03 01:09:50;;;;;;;;;7.00;6.33;;;;;22.18;70.14;100011.66;5036643;28;45369;-75
2022/08/03 01:12:28;;;;;;;;;9.00;8.00;;;;;22.17;69.93;100004.56;5027885;28;45289;-76
2022/08/03 01:15:12;;;;;;;;;6.33;6.33;;;;;22.14;69.49;100001.97;5024423;28;45532;-75
2022/08/03 01:18:04;;;;;;;;;7.00;7.00;;;;;22.12;69.57;100003.81;5023933;28;45431;-75
2022/08/03 01:20:35;;;;;;;;;8.00;7.67;;;;;22.13;69.57;100002.03;5026262;28;45476;-76
2022/08/03 01:23:13;;;;;;;;;7.00;7.00;;;;;22.12;69.91;100006.47;5020063;28;45485;-75
2022/08/03 01:26:25;;;;;;;;;7.00;7.00;;;;;22.07;69.54;100003.06;5034991;28;45455;-75
2022/08/03 01:29:24;;;;;;;;;10.00;9.00;;;;;22.08;69.82;100007.47;5018475;28;45295;-75
2022/08/03 01:31:59;;;;;;;;;9.00;9.00;;;;;22.10;69.35;100002.97;5019218;28;45453;-76
2022/08/03 01:34:30;;;;;;;;;7.33;6.00;;;;;21.94;69.46;99975.03;5019064;28;45470;-75
2022/08/03 01:37:00;;;;;;;;;8.33;8.00;;;;;22.15;69.68;100002.88;5032619;28;45529;-75
2022/08/03 01:39:29;;;;;;;;;9.00;7.67;;;;;22.11;69.13;100006.53;5037672;28;46042;-76
2022/08/03 01:42:04;;;;;;;;;9.00;9.00;;;;;21.93;69.78;100013.19;5038514;28;45357;-75
2022/08/03 01:44:34;;;;;;;;;6.00;6.00;;;;;21.73;69.80;99987.97;5036248;28;45325;-75
2022/08/03 01:47:02;;;;;;;;;8.67;7.67;;;;;21.79;69.91;100008.22;5038136;28;45497;-75
2022/08/03 01:49:30;;;;;;;;;6.00;6.00;;;;;21.77;70.12;100002.06;5038014;28;45471;-75
2022/08/03 01:51:57;;;;;;;;;7.67;7.67;;;;;21.75;70.96;100011.88;5022415;28;45550;-74
2022/08/03 01:54:25;;;;;;;;;8.00;8.00;;;;;21.54;71.17;99991.97;5033774;28;47137;-76
2022/08/03 01:56:53;;;;;;;;;8.67;7.33;;;;;21.71;70.60;100011.06;5018614;28;45467;-75
2022/08/03 01:59:19;;;;;;;;;8.33;8.33;;;;;;;;5019079;28;45613;-76
2022/08/03 02:01:44;;;;;;;;;10.00;9.00;;;;;;;;5018845;28;45794;-75
2022/08/03 02:04:13;;;;;;;;;8.67;7.67;;;;;21.56;71.65;99993.69;5018635;28;45456;-75
2022/08/03 02:06:40;;;;;;;;;9.00;8.67;;;;;21.73;72.18;100013.69;5018379;28;45336;-75
2022/08/03 02:09:07;;;;;;;;;11.00;9.00;;;;;21.67;71.36;100009.38;5031446;28;45378;-75
2022/08/03 02:11:34;;;;;;;;;7.00;7.00;;;;;21.55;71.22;99994.59;5020603;28;45406;-75
2022/08/03 02:14:04;;;;;;;;;8.00;7.00;;;;;21.53;71.14;99987.59;5018600;28;45627;-76
2022/08/03 02:16:33;;;;;;;;;7.33;7.33;;;;;21.61;71.13;99990.94;5018685;28;45466;-75
2022/08/03 02:19:01;;;;;;;;;6.33;6.00;;;;;21.60;71.24;100002.47;5034151;28;46089;-75
2022/08/03 02:21:28;;;;;;;;;6.67;6.00;;;;;21.61;71.08;99999.78;5026430;28;45319;-75
2022/08/03 02:23:54;;;;;;;;;8.00;7.33;;;;;21.60;70.75;99998.00;5038250;28;45448;-75
2022/08/03 02:26:23;;;;;;;;;9.33;8.33;;;;;21.60;71.04;99986.50;5022183;28;45472;-75
2022/08/03 02:28:51;;;;;;;;;8.00;7.00;;;;;21.55;70.38;99978.66;5018880;28;45806;-75
2022/08/03 02:31:22;;;;;;;;;9.67;7.00;;;;;21.61;70.68;99983.81;5035078;28;45453;-75
2022/08/03 02:33:51;;;;;;;;;9.00;8.33;;;;;21.52;70.53;99989.34;5025453;28;45515;-75
2022/08/03 02:36:24;;;;;;;;;7.00;7.00;;;;;21.47;70.88;100001.00;5018593;28;45519;-76
2022/08/03 02:38:54;;;;;;;;;10.00;9.00;;;;;20.85;70.92;99891.72;5022707;28;46197;-75
2022/08/03 02:41:26;;;;;;;;;8.00;7.67;;;;;21.41;71.12;99986.94;5028658;28;45276;-75
2022/08/03 02:43:55;;;;;;;;;8.33;7.33;;;;;21.50;71.13;99988.53;5031216;28;45438;-75
2022/08/03 02:46:29;;;;;;;;;7.67;7.67;;;;;21.28;70.56;99956.25;5035726;28;45390;-75
2022/08/03 02:48:58;;;;;;;;;8.67;7.67;;;;;21.54;70.44;100002.63;5017615;28;46007;-75
2022/08/03 02:51:25;;;;;;;;;6.67;6.00;;;;;21.33;70.85;99982.69;5028829;28;45377;-75
2022/08/03 02:53:53;;;;;;;;;8.00;8.00;;;;;21.44;70.94;100008.13;5036075;28;45232;-75
2022/08/03 02:56:21;;;;;;;;;9.00;8.33;;;;;21.16;70.92;99954.75;5018051;28;45434;-75
2022/08/03 02:58:48;;;;;;;;;8.33;7.00;;;;;21.22;71.00;99967.88;5018451;28;45423;-75
2022/08/03 03:01:15;;;;;;;;;8.33;7.67;;;;;21.39;71.38;100003.81;5052614;28;45439;-75
2022/08/03 03:03:41;;;;;;;;;7.00;7.00;;;;;21.42;71.04;100015.22;5037444;28;45412;-75
2022/08/03 03:06:09;;;;;;;;;8.00;7.00;;;;;21.39;70.98;100003.81;5023714;28;45516;-75
2022/08/03 03:08:36;;;;;;;;;8.33;7.33;;;;;21.19;70.77;99973.28;5025115;28;46471;-75
2022/08/03 03:11:02;;;;;;;;;8.33;7.33;;;;;21.41;70.78;100016.16;5017591;28;45535;-75
2022/08/03 03:13:29;;;;;;;;;8.00;7.33;;;;;21.32;71.38;100013.69;5033136;28;45655;-75
2022/08/03 03:15:58;;;;;;;;;7.00;7.00;;;;;21.14;71.56;100004.38;5032661;28;45434;-75
2022/08/03 03:18:26;;;;;;;;;7.67;7.67;;;;;21.25;72.32;100018.28;5037578;28;48057;-75
2022/08/03 03:20:53;;;;;;;;;9.67;9.00;;;;;21.22;73.18;100034.28;5017569;28;45453;-75
2022/08/03 03:23:21;;;;;;;;;10.00;9.00;;;;;21.20;72.82;100029.91;5033492;28;46025;-75
2022/08/03 03:25:47;;;;;;;;;9.33;8.33;;;;;21.16;72.59;100026.44;5032046;28;45558;-75
2022/08/03 03:28:14;;;;;;;;;8.33;8.00;;;;;21.13;72.75;100026.53;5025844;28;46179;-75
2022/08/03 03:30:39;;;;;;;;;7.67;7.00;;;;;21.15;72.28;100022.06;5036854;28;45555;-75
2022/08/03 03:33:06;;;;;;;;;9.00;7.67;;;;;21.09;72.75;100011.56;5036260;28;45567;-75
2022/08/03 03:35:33;;;;;;;;;8.67;7.67;;;;;21.16;72.94;100028.25;5036980;28;45497;-75
2022/08/03 03:37:59;;;;;;;;;8.33;6.67;;;;;20.85;71.99;99978.47;5036573;28;45539;-75
2022/08/03 03:40:26;;;;;;;;;11.67;9.67;;;;;21.12;72.51;100030.09;5035784;28;45680;-75
2022/08/03 03:42:52;;;;;;;;;9.00;8.00;;;;;21.11;72.01;100028.34;5028736;28;45528;-75
2022/08/03 03:45:19;;;;;;;;;9.33;8.33;;;;;20.61;72.17;99942.66;5028566;28;45376;-75
2022/08/03 03:47:45;;;;;;;;;9.00;7.67;;;;;21.06;72.30;100020.47;5019923;28;46214;-75
2022/08/03 03:50:10;;;;;;;;;9.00;8.00;;;;;21.07;73.04;100026.66;5036296;28;45481;-75
2022/08/03 03:52:36;;;;;;;;;8.67;8.00;;;;;21.06;72.92;100022.25;5028749;28;45521;-75
2022/08/03 03:55:02;;;;;;;;;9.33;8.00;;;;;20.88;73.06;99985.47;5017169;28;45552;-75
2022/08/03 03:57:28;;;;;;;;;7.00;7.00;;;;;21.03;73.07;100023.19;5016505;28;45941;-75
2022/08/03 03:59:53;;;;;;;;;8.00;7.33;;;;;21.07;72.82;100021.34;5020650;28;45260;-75
2022/08/03 04:02:19;;;;;;;;;7.00;7.00;;;;;20.84;72.28;99963.44;5028659;28;45675;-75
2022/08/03 04:13:16;;;;;;;;;9.33;8.00;;;;;21.04;73.04;100027.59;5028060;28;45426;-75
2022/08/03 04:15:42;;;;;;;;;8.00;8.00;;;;;21.06;72.46;100028.44;5043234;28;45252;-75
2022/08/03 04:18:12;;;;;;;;;8.67;8.33;;;;;21.06;72.20;100038.19;5034626;28;45612;-75
2022/08/03 04:20:42;;;;;;;;;9.00;8.67;;;;;20.97;72.39;100033.06;5032003;28;45395;-75
2022/08/03 04:23:08;;;;;;;;;9.00;8.00;;;;;20.99;71.86;100026.81;5016876;28;45391;-75
2022/08/03 04:25:38;;;;;;;;;10.67;8.00;;;;;20.93;72.26;100018.09;5016942;28;45640;-75
2022/08/03 04:28:04;;;;;;;;;7.00;7.00;;;;;20.89;72.50;100022.63;5033983;28;45437;-75
2022/08/03 04:30:34;;;;;;;;;7.00;7.00;;;;;20.92;72.97;100032.28;5035934;28;45322;-75
2022/08/03 04:33:01;;;;;;;;;9.33;9.00;;;;;20.96;72.74;100037.50;5057672;28;45258;-75
2022/08/03 04:35:32;;;;;;;;;8.00;6.67;;;;;20.18;72.66;99896.63;5043944;28;45500;-75
2022/08/03 04:38:01;;;;;;;;;12.00;8.33;;;;;20.98;73.17;100038.34;5016520;28;45471;-75
2022/08/03 04:40:35;;;;;;;;;9.00;8.33;;;;;20.89;72.70;100030.59;5024494;28;45569;-75
2022/08/03 04:43:02;;;;;;;;;10.00;8.00;;;;;20.86;72.49;100038.59;5022802;28;45547;-75
2022/08/03 04:45:29;;;;;;;;;7.67;7.00;;;;;20.85;72.84;100045.69;5016732;28;45339;-75
2022/08/03 04:47:56;;;;;;;;;9.00;7.33;;;;;20.61;72.78;100009.00;5021186;28;46188;-75
2022/08/03 04:50:21;;;;;;;;;10.00;8.00;;;;;20.83;72.42;100030.69;5035734;28;45342;-75
2022/08/03 04:52:48;;;;;;;;;9.00;7.00;;;;;20.86;72.28;100031.50;5022945;28;45502;-75
2022/08/03 04:55:26;;;;;;;;;8.33;7.67;;;;;20.94;72.63;100049.06;5016480;28;45616;-75
2022/08/03 04:57:52;;;;;;;;;10.33;10.33;;;;;20.94;72.40;100034.00;5016153;28;45566;-75
2022/08/03 05:00:18;;;;;;;;;8.00;7.33;;;;;20.85;72.28;100007.66;5026197;28;45636;-75
2022/08/03 05:02:43;;;;;;;;;8.67;8.67;;;;;21.11;72.51;100046.94;5021317;28;45416;-75
2022/08/03 05:05:10;;;;;;;;;9.00;8.33;;;;;21.15;72.01;100050.38;5016197;28;45607;-75
2022/08/03 05:07:37;;;;;;;;;11.33;9.00;;;;;21.24;71.71;100064.34;5015475;28;46641;-75
2022/08/03 05:10:07;;;;;;;;;10.00;9.33;;;;;21.32;71.23;100055.34;5016715;28;45667;-75
2022/08/03 05:12:32;;;;;;;;;7.00;7.00;;;;;21.32;71.55;100058.88;5035479;28;45425;-75
2022/08/03 05:14:58;;;;;;;;;9.00;9.00;;;;;21.22;71.33;100047.56;5034875;28;45433;-75
2022/08/03 05:17:24;;;;;;;;;12.33;10.00;;;;;21.31;71.28;100058.88;5021112;28;45306;-75
2022/08/03 05:19:49;;;;;;;;;9.67;9.00;;;;;21.24;71.36;100027.16;5027995;28;45362;-75
2022/08/03 05:22:15;;;;;;;;;9.33;8.67;;;;;21.08;71.91;99988.56;5038254;28;45414;-75
2022/08/03 05:24:40;;;;;;;;;8.33;8.33;;;;;21.54;71.15;100051.31;5019591;28;45501;-75
2022/08/03 05:27:06;;;;;;;;;7.33;6.00;;;;;21.63;70.13;100058.22;5019272;28;46251;-75
2022/08/03 05:29:31;;;;;;;;;8.67;8.00;;;;;21.68;70.29;100043.03;5023542;28;45592;-75
2022/08/03 05:31:57;;;;;;;;;9.00;8.00;;;;;21.63;70.30;100036.97;5019781;28;45495;-76
2022/08/03 05:34:22;;;;;;;;;9.33;8.33;;;;;21.71;69.95;100058.03;5034713;28;45468;-75
2022/08/03 05:36:48;;;;;;;;;9.67;9.00;;;;;21.43;70.14;100011.72;5038817;28;46693;-75
2022/08/03 05:39:13;;;;;;;;;12.00;12.00;;;;;21.72;70.65;100054.47;5030816;28;45602;-74
2022/08/03 05:41:39;;;;;;;;;8.00;7.33;;;;;21.80;70.10;100050.69;5018978;28;45338;-75
2022/08/03 05:44:05;;;;;;;;;6.33;6.00;;;;;21.63;70.18;100013.03;5034634;28;45480;-75
2022/08/03 05:46:30;;;;;;;;;8.67;8.00;;;;;21.92;70.20;100061.97;5018691;28;45434;-75
2022/08/03 05:48:56;;;;;;;;;8.00;8.00;;;;;22.05;69.41;100072.25;5024645;28;45431;-75
2022/08/03 05:51:21;;;;;;;;;9.67;8.00;;;;;22.19;69.03;100074.56;5028124;28;45571;-75
2022/08/03 05:53:47;;;;;;;;;9.00;8.67;;;;;22.34;68.31;100078.69;5019062;28;45518;-75
2022/08/03 05:56:13;;;;;;;;;8.67;8.00;;;;;22.14;68.63;100027.72;5034004;28;46249;-75
2022/08/03 05:58:38;;;;;;;;;8.67;8.00;;;;;22.28;69.15;100065.50;5024336;28;45668;-75
2022/08/03 06:01:04;;;;;;;;;12.00;11.00;;;;;22.31;68.59;100068.09;5037538;28;45426;-75
2022/08/03 06:03:29;;;;;;;;;8.00;7.67;;;;;22.20;68.22;100051.50;5038905;28;45455;-75
2022/08/03 06:05:57;;;;;;;;;10.00;9.33;;;;;22.49;67.57;100080.03;5037817;28;45576;-75
2022/08/03 06:08:23;;;;;;;;;9.67;9.00;;;;;22.62;67.45;100081.47;5038228;28;45905;-75
2022/08/03 06:10:49;;;;;;;;;9.00;9.00;;;;;22.63;67.99;100075.22;5032948;28;45499;-75
2022/08/03 06:13:15;;;;;;;;;8.67;7.00;;;;;22.76;67.40;100089.09;5025898;28;45511;-75
2022/08/03 06:15:40;;;;;;;;;8.00;7.00;;;;;23.00;66.67;100086.66;5037412;28;45493;-75
2022/08/03 06:18:06;;;;;;;;;10.00;9.00;;;;;23.31;66.28;100094.63;5022048;28;45476;-76
2022/08/03 06:20:33;;;;;;;;;8.33;8.33;;;;;23.62;65.16;100096.38;5022412;28;45294;-76
2022/08/03 06:22:59;;;;;;;;;9.67;9.00;;;;;24.54;62.85;100104.09;5030559;28;45432;-76
2022/08/03 06:25:25;;;;;;;;;8.33;7.33;;;;;26.51;56.88;100090.28;5018343;28;46392;-76
2022/08/03 06:27:50;;;;;;;;;9.33;9.33;;;;;28.05;52.80;100108.25;5045522;28;45537;-76
2022/08/03 06:30:17;;;;;;;;;9.00;8.00;;;;;28.68;52.18;100093.47;5036007;28;45438;-76
2022/08/03 06:32:43;;;;;;;;;11.33;9.67;;;;;29.27;51.50;100104.69;5020423;28;45737;-76
2022/08/03 06:35:09;;;;;;;;;9.00;8.67;;;;;30.32;47.88;100107.72;5022345;28;45546;-76
2022/08/03 06:37:43;;;;;;;;;9.00;8.00;;;;;30.59;47.58;100109.75;5037400;28;45890;-76
2022/08/03 06:40:10;;;;;;;;;8.00;7.00;;;;;31.35;46.71;100114.94;5030765;28;45440;-76
2022/08/03 06:42:35;;;;;;;;;9.00;9.00;;;;;31.79;45.27;100116.63;5021256;28;45421;-77
2022/08/03 06:45:02;;;;;;;;;8.00;7.00;;;;;32.62;43.27;100108.44;5037429;28;45483;-77
2022/08/03 06:47:28;;;;;;;;;10.33;8.33;;;;;32.86;43.52;100103.16;5028773;28;45461;-77
2022/08/03 06:49:53;;;;;;;;;8.33;7.67;;;;;32.55;43.58;100112.53;5017639;28;45403;-77
2022/08/03 06:52:19;;;;;;;;;9.67;9.33;;;;;32.26;44.04;100122.59;5033178;28;45547;-77
2022/08/03 06:54:44;;;;;;;;;9.33;9.33;;;;;33.41;42.40;100133.56;5017562;28;45801;-77
2022/08/03 06:57:10;;;;;;;;;9.33;8.00;;;;;33.69;41.10;100139.72;5032832;28;45367;-76
2022/08/03 06:59:36;;;;;;;;;8.67;8.00;;;;;34.62;39.52;100137.25;5033941;28;45381;-75
2022/08/03 07:02:02;;;;;;;;;9.33;8.00;;;;;33.81;40.99;100141.53;5017967;28;45351;-77
2022/08/03 07:04:28;;;;;;;;;11.67;10.00;;;;;32.16;42.13;100078.25;5061120;28;47121;-77
2022/08/03 07:06:54;;;;;;;;;9.00;9.00;;;;;31.85;43.34;100140.56;5021112;28;45533;-76
2022/08/03 07:09:19;;;;;;;;;7.67;7.67;;;;;31.34;44.13;100105.13;5017515;28;46200;-77
2022/08/03 07:11:45;;;;;;;;;8.00;7.00;;;;;31.39;45.18;100131.81;5024621;28;45568;-77
2022/08/03 07:14:10;;;;;;;;;9.00;8.33;;;;;32.34;43.22;100113.97;5025524;28;45995;-78
2022/08/03 07:16:36;;;;;;;;;10.00;8.67;;;;;32.08;44.42;100140.91;5032299;28;45628;-77
2022/08/03 07:19:02;;;;;;;;;7.00;7.00;;;;;31.64;44.23;100134.72;5036136;28;45409;-77
2022/08/03 07:21:27;;;;;;;;;8.67;8.67;;;;;31.06;45.33;100114.97;5037077;28;45874;-77
2022/08/03 07:23:53;;;;;;;;;10.00;9.67;;;;;30.54;46.16;100142.38;5036012;28;46076;-77
2022/08/03 07:26:18;;;;;;;;;10.33;9.33;;;;;30.16;47.17;100139.19;5022167;28;45433;-77
2022/08/03 07:28:44;;;;;;;;;8.67;8.67;;;;;30.69;46.59;100156.75;5025136;28;46385;-78
2022/08/03 07:31:09;;;;;;;;;9.00;9.00;;;;;32.94;43.29;100172.09;5021673;28;45205;-77
2022/08/03 07:33:35;;;;;;;;;10.67;10.00;;;;;35.31;39.49;100176.31;5032882;28;45544;-77
2022/08/03 07:36:00;;;;;;;;;8.67;8.67;;;;;36.55;37.33;100179.72;5021121;28;45489;-77
2022/08/03 07:38:26;;;;;;;;;8.67;7.00;;;;;35.93;37.04;100162.19;5036275;28;45397;-77
2022/08/03 07:40:52;;;;;;;;;7.33;7.33;;;;;34.32;39.22;100123.34;5024355;28;45347;-77
2022/08/03 07:43:18;;;;;;;;;8.33;7.33;;;;;33.45;41.94;100162.16;5016131;28;46022;-76
2022/08/03 07:45:43;;;;;;;;;9.33;7.67;;;;;32.89;42.69;100162.47;5031594;28;45446;-77
2022/08/03 07:48:09;;;;;;;;;12.00;11.00;;;;;32.56;43.48;100146.72;5024082;28;45456;-77
2022/08/03 07:50:35;;;;;;;;;11.00;8.67;;;;;32.35;43.97;100131.91;5036481;28;45477;-77
2022/08/03 07:53:00;;;;;;;;;9.67;9.00;;;;;34.16;40.78;100148.03;5020665;28;45351;-77
2022/08/03 07:55:27;;;;;;;;;12.00;10.00;;;;;35.99;37.38;100136.38;5019117;28;45529;-78
2022/08/03 07:58:21;;;;;;;;;9.67;9.67;;;;;35.46;38.04;100112.63;5028010;28;45568;-78
2022/08/03 08:00:47;;;;;;;;;12.33;9.67;;;;;34.81;39.86;100131.28;5014465;28;45613;-77
2022/08/03 08:03:12;;;;;;;;;8.00;7.67;;;;;34.44;40.49;100122.38;5018911;28;46243;-78
2022/08/03 08:05:38;;;;;;;;;9.33;8.00;;;;;35.50;39.18;100132.25;5036229;28;45512;-78
2022/08/03 08:08:04;;;;;;;;;11.00;8.33;;;;;38.06;34.86;100135.69;5036026;28;45364;-78
2022/08/03 08:10:29;;;;;;;;;9.33;8.33;;;;;37.22;35.05;100106.84;5021502;28;45339;-78
2022/08/03 08:12:56;;;;;;;;;8.67;8.00;;;;;36.56;36.48;100127.03;5031765;28;46137;-78
2022/08/03 08:15:22;;;;;;;;;8.67;8.00;;;;;36.04;37.46;100121.41;5018208;28;46470;-77
2022/08/03 08:17:50;;;;;;;;;9.00;7.00;;;;;35.78;38.09;100125.44;5026786;28;45381;-77
2022/08/03 08:20:21;;;;;;;;;9.00;8.67;;;;;36.49;37.20;100117.69;5021349;28;45449;-77
2022/08/03 08:22:47;;;;;;;;;6.67;6.00;;;;;35.76;37.90;100111.97;5031189;28;46291;-78
2022/08/03 08:25:13;;;;;;;;;8.67;8.33;;;;;36.66;36.45;100067.25;5015769;28;45525;-79
2022/08/03 08:27:47;;;;;;;;;11.00;9.00;;;;;38.98;32.48;100088.84;5016565;28;45416;-79
2022/08/03 08:30:14;;;;;;;;;11.67;9.33;;;;;40.31;29.97;100102.06;5031400;28;45594;-78
2022/08/03 08:32:40;;;;;;;;;8.67;8.67;;;;;42.04;28.48;100128.59;5032167;28;46894;-78
2022/08/03 08:35:07;;;;;;;;;12.33;11.00;;;;;43.14;26.94;100102.63;5015899;28;45488;-78
2022/08/03 08:37:33;;;;;;;;;7.33;7.33;;;;;44.21;25.48;100139.66;5015978;28;45342;-78
2022/08/03 08:39:59;;;;;;;;;10.00;10.00;;;;;44.53;23.97;100136.84;5022862;28;45520;-77
2022/08/03 08:42:25;;;;;;;;;8.67;8.00;;;;;44.82;23.79;100102.97;5032252;28;46088;-77
2022/08/03 08:44:51;;;;;;;;;8.67;8.00;;;;;45.49;23.31;100085.53;5026735;28;45318;-77
2022/08/03 08:47:23;;;;;;;;;9.00;9.00;;;;;46.18;23.61;100093.34;5027400;28;45442;-77
2022/08/03 08:49:52;;;;;;;;;6.67;6.67;;;;;46.79;23.10;100123.19;5018494;28;45509;-78
2022/08/03 08:52:23;;;;;;;;;7.33;7.33;;;;;47.08;22.90;100115.75;5020653;28;45946;-78
2022/08/03 08:54:49;;;;;;;;;7.67;7.33;;;;;46.36;21.92;100131.53;5037536;28;45248;-78
2022/08/03 08:57:16;;;;;;;;;7.67;7.33;;;;;46.50;22.75;100107.69;5024742;28;45366;-78
2022/08/03 08:59:43;;;;;;;;;9.00;8.67;;;;;46.40;22.29;100121.78;5020234;28;45500;-78
2022/08/03 09:02:09;;;;;;;;;7.00;6.00;;;;;46.40;22.31;100119.03;5038392;28;46262;-78
2022/08/03 09:04:38;;;;;;;;;11.67;10.67;;;;;46.82;22.56;100110.91;5036843;28;45691;-78
2022/08/03 09:07:04;;;;;;;;;8.00;8.00;;;;;47.12;22.08;100106.00;5038198;28;45472;-76
2022/08/03 09:09:31;;;;;;;;;7.00;7.00;;;;;47.63;21.45;100107.53;5018810;28;45442;-78
2022/08/03 09:11:56;;;;;;;;;10.33;9.00;;;;;47.65;20.75;100116.50;5018827;28;45425;-77
2022/08/03 09:14:22;;;;;;;;;8.33;8.00;;;;;47.54;21.95;100115.16;5034043;28;45403;-79
2022/08/03 09:17:01;;;;;;;;;9.00;9.00;;;;;47.89;21.37;100106.75;5031025;28;45366;-77
2022/08/03 09:19:28;;;;;;;;;8.67;8.67;;;;;48.30;21.13;100116.91;5028646;28;45518;-76
2022/08/03 09:22:16;;;;;;;;;7.67;7.00;;;;;47.51;22.04;100106.41;5022852;28;45620;-79
2022/08/03 09:24:56;;;;;;;;;9.33;9.00;;;;;45.88;23.33;100119.31;5022456;28;45243;-79
2022/08/03 09:27:22;;;;;;;;;7.67;7.67;;;;;44.00;25.03;100081.63;5026694;28;45412;-78
2022/08/03 09:29:52;;;;;;;;;9.00;9.00;;;;;42.62;26.41;100024.28;5032727;28;45566;-78
2022/08/03 09:32:19;;;;;;;;;9.67;9.00;;;;;42.37;27.03;100098.44;5020214;28;46001;-78
2022/08/03 09:34:46;;;;;;;;;9.00;8.67;;;;;41.77;27.44;100106.91;5036840;28;45467;-76
2022/08/03 09:37:17;;;;;;;;;10.33;9.33;;;;;40.96;28.94;100081.66;5038042;28;45522;-76
2022/08/03 09:39:44;;;;;;;;;9.00;8.33;;;;;40.63;29.39;100116.16;5029882;28;45429;-77
2022/08/03 09:42:16;;;;;;;;;8.33;7.00;;;;;40.24;29.57;100119.22;5028537;28;46250;-79
2022/08/03 09:44:51;;;;;;;;;8.00;7.00;;;;;39.87;30.21;100117.47;5034051;28;45524;-77
2022/08/03 09:47:37;;;;;;;;;13.67;13.67;;;;;39.45;30.50;100087.91;5017740;28;45759;-78
2022/08/03 09:50:06;;;;;;;;;8.00;8.00;;;;;39.58;30.44;100116.63;5029613;28;45798;-79
2022/08/03 09:52:37;;;;;;;;;9.33;8.33;;;;;39.25;31.09;100104.38;5020569;28;45728;-78
2022/08/03 09:55:14;;;;;;;;;9.67;9.00;;;;;39.23;31.12;100114.59;5022986;28;45387;-78
2022/08/03 09:57:44;;;;;;;;;9.67;9.67;;;;;38.96;31.27;100079.91;5037213;28;45576;-79
2022/08/03 10:00:13;;;;;;;;;8.00;8.00;;;;;39.08;31.41;100111.50;5022728;28;45426;-79
2022/08/03 10:02:43;;;;;;;;;9.67;9.33;;;;;39.03;31.77;100112.97;5019945;28;47446;-79
2022/08/03 10:05:11;;;;;;;;;11.33;9.67;;;;;39.19;31.32;100121.38;5027934;28;45646;-79
2022/08/03 10:07:48;;;;;;;;;7.33;7.33;;;;;39.88;30.80;100120.06;5017130;28;45655;-79
2022/08/03 10:10:16;;;;;;;;;9.00;9.00;;;;;40.49;30.09;100123.94;5017576;28;45386;-79
2022/08/03 10:12:43;;;;;;;;;10.33;10.00;;;;;41.03;29.36;100122.94;5015138;28;46374;-77
2022/08/03 10:15:09;;;;;;;;;19.67;19.00;;;;;41.58;28.81;100108.84;5017114;28;45600;-76
2022/08/03 10:17:36;;;;;;;;;9.00;9.00;;;;;42.12;28.32;100101.16;5030281;28;45546;-78
2022/08/03 10:20:05;;;;;;;;;10.00;10.00;;;;;42.81;27.64;100110.94;5020262;28;45574;-79
2022/08/03 10:22:35;;;;;;;;;10.00;10.00;;;;;43.50;25.92;100108.56;5035813;28;45521;-78
2022/08/03 10:25:05;;;;;;;;;10.00;9.67;;;;;43.76;25.37;100119.28;5026465;28;45457;-79
2022/08/03 10:27:33;;;;;;;;;8.33;8.33;;;;;43.30;25.84;100083.38;5016853;28;45442;-78
2022/08/03 10:30:04;;;;;;;;;8.67;8.00;;;;;43.20;26.62;100097.31;5031662;28;45588;-78
2022/08/03 10:32:54;;;;;;;;;10.67;9.33;;;;;43.71;25.47;100096.94;5022814;28;45524;-79
2022/08/03 10:35:22;;;;;;;;;9.67;9.33;;;;;43.69;25.59;100091.63;5036087;28;45634;-77
2022/08/03 10:38:11;;;;;;;;;9.33;8.67;;;;;43.22;25.71;100007.28;5019815;28;45407;-79
2022/08/03 10:40:39;;;;;;;;;8.00;7.67;;;;;43.46;25.51;100057.69;5026878;28;45489;-79
2022/08/03 10:43:20;;;;;;;;;8.67;8.00;;;;;42.97;25.72;100074.38;5027713;28;45288;-79
2022/08/03 10:45:45;;;;;;;;;8.67;8.67;;;;;43.15;25.76;100077.72;5032533;28;45634;-78
2022/08/03 10:48:12;;;;;;;;;7.67;7.67;;;;;43.30;25.92;100075.97;5016489;28;45595;-78
2022/08/03 10:50:40;;;;;;;;;9.33;9.00;;;;;43.38;25.17;100055.84;5017378;28;45300;-78
2022/08/03 10:53:06;;;;;;;;;16.33;15.33;;;;;43.47;25.90;100064.91;5032021;28;46568;-77
2022/08/03 10:58:37;;;;;;;;;9.67;9.00;;;;;44.00;24.78;100070.63;5025275;28;45556;-78
2022/08/03 11:01:09;;;;;;;;;11.00;11.00;;;;;43.71;24.85;100054.81;5030193;28;45352;-78
2022/08/03 11:03:53;;;;;;;;;9.33;9.00;;;;;43.76;25.00;100066.16;5022136;28;46000;-78
2022/08/03 11:06:25;;;;;;;;;10.33;10.33;;;;;43.37;25.78;100053.28;5024588;28;45696;-78
2022/08/03 11:09:09;;;;;;;;;8.33;8.00;;;;;43.27;25.88;100048.84;5020705;28;45438;-77
2022/08/03 11:11:39;;;;;;;;;10.00;10.00;;;;;42.80;26.09;100030.44;5016426;28;45484;-78
2022/08/03 11:14:10;;;;;;;;;11.00;10.67;;;;;42.50;26.16;100035.66;5016234;28;45665;-78
2022/08/03 11:16:46;;;;;;;;;7.33;7.33;;;;;41.60;27.11;100029.19;5016024;28;45391;-78
2022/08/03 11:19:15;;;;;;;;;10.00;9.33;;;;;41.02;28.23;99984.28;5032925;28;45559;-78
2022/08/03 11:21:47;;;;;;;;;10.33;9.33;;;;;40.81;28.56;100015.69;5036305;28;45596;-79
2022/08/03 11:24:56;;;;;;;;;8.00;8.00;;;;;40.11;29.93;100015.66;5035353;28;46403;-78
2022/08/03 11:27:28;;;;;;;;;9.67;9.67;;;;;39.30;30.25;100006.44;5008266;28;46047;-79
2022/08/03 11:30:04;;;;;;;;;10.33;10.33;;;;;39.13;30.59;99999.91;5025527;28;45273;-78
2022/08/03 11:32:39;;;;;;;;;8.33;8.00;;;;;38.68;31.01;100000.66;5022598;28;45454;-77
2022/08/03 11:35:23;;;;;;;;;8.00;8.00;;;;;37.68;31.80;99900.19;5017535;28;46279;-78
2022/08/03 11:38:01;;;;;;;;;8.33;7.67;;;;;38.25;31.85;99995.72;5034582;28;45331;-77
2022/08/03 11:40:37;;;;;;;;;9.33;8.33;;;;;37.69;32.35;99896.47;5030005;28;45428;-78
2022/08/03 11:43:29;;;;;;;;;9.33;9.33;;;;;38.24;33.36;99999.44;5027097;28;45438;-78